createdAt,value
2022-10-20T00:00:01.794Z,99441.28
2022-10-20T00:01:07.138Z,99436.84
2022-10-20T00:02:09.797Z,99430.75
2022-10-20T00:03:12.060Z,99429.91
2022-10-20T00:04:14.876Z,99433.31
2022-10-20T00:05:17.274Z,99436.03
2022-10-20T00:06:21.035Z,99440.41
2022-10-20T00:07:23.583Z,99440.41
2022-10-20T00:08:26.010Z,99436.06
2022-10-20T00:09:28.285Z,99436.06
2022-10-20T00:10:31.349Z,99433.44
2022-10-20T00:11:33.920Z,99440.53
2022-10-20T00:12:36.453Z,99436.13
2022-10-20T00:13:40.827Z,99436.03
2022-10-20T00:14:43.078Z,99434.34
2022-10-20T00:15:49.970Z,99435.25
2022-10-20T00:16:54.224Z,99429.19
2022-10-20T00:17:56.482Z,99434.34
2022-10-20T00:18:58.954Z,99433.56
2022-10-20T00:20:01.438Z,99433.69
2022-10-20T00:21:08.991Z,99424.75
2022-10-20T00:22:14.408Z,99439.59
2022-10-20T00:23:16.693Z,99436.06
2022-10-20T00:24:21.456Z,99432.59
2022-10-20T00:25:23.809Z,99427.44
2022-10-20T00:26:27.703Z,99437.16
2022-10-20T00:27:32.797Z,99430.63
2022-10-20T00:28:35.557Z,99435.31
2022-10-20T00:29:37.950Z,99430.88
2022-10-20T00:30:41.940Z,99435.31
2022-10-20T00:31:44.456Z,99429.09
2022-10-20T00:32:47.783Z,99428.19
2022-10-20T00:33:49.989Z,99429.97
2022-10-20T00:34:52.203Z,99427.34
2022-10-20T00:35:54.429Z,99430.81
2022-10-20T00:36:57.955Z,99427.34
2022-10-20T00:38:00.192Z,99421.22
2022-10-20T00:39:05.812Z,99426.41
2022-10-20T00:40:08.515Z,99415.72
2022-10-20T00:41:16.607Z,99421.03
2022-10-20T00:42:19.964Z,99414.19
2022-10-20T00:43:22.508Z,99413.97
2022-10-20T00:44:53.893Z,99408.03
2022-10-20T00:45:57.352Z,99407.97
2022-10-20T00:47:00.105Z,99407.97
2022-10-20T00:48:14.482Z,99406.75
2022-10-20T00:49:26.082Z,99393.16
2022-10-20T00:50:34.317Z,99395.66
2022-10-20T00:51:37.324Z,99392.25
2022-10-20T00:52:41.409Z,99397.50
2022-10-20T00:53:45.883Z,99391.41
2022-10-20T00:54:49.414Z,99395.63
2022-10-20T00:55:54.745Z,99393.56
2022-10-20T00:56:58.642Z,99386.69
2022-10-20T00:58:02.452Z,99398.88
2022-10-20T00:59:05.649Z,99377.69
2022-10-20T01:00:08.869Z,99389.69
2022-10-20T01:01:12.453Z,99386.34
2022-10-20T01:02:14.690Z,99381.97
2022-10-20T01:03:30.569Z,99386.28
2022-10-20T01:04:34.602Z,99388.84
2022-10-20T01:05:36.811Z,99389.91
2022-10-20T01:06:39.597Z,99388.84
2022-10-20T01:07:41.788Z,99395.94
2022-10-20T01:08:44.286Z,99395.81
2022-10-20T01:09:47.201Z,99398.91
2022-10-20T01:11:21.507Z,99393.72
2022-10-20T01:12:33.282Z,99389.44
2022-10-20T01:13:57.399Z,99387.81
2022-10-20T01:15:11.617Z,99388.44
2022-10-20T01:16:26.033Z,99392.00
2022-10-20T01:18:01.714Z,99385.69
2022-10-20T01:19:16.025Z,99390.03
2022-10-20T01:21:00.930Z,99388.19
2022-10-20T01:22:28.612Z,99386.28
2022-10-20T01:23:42.717Z,99392.41
2022-10-20T01:25:15.799Z,99387.00
2022-10-20T01:26:40.360Z,99389.72
2022-10-20T01:27:44.597Z,99394.09
2022-10-20T01:29:00.317Z,99389.50
2022-10-20T01:30:19.351Z,99395.03
2022-10-20T01:31:29.848Z,99401.13
2022-10-20T01:33:02.775Z,99390.69
2022-10-20T01:34:30.712Z,99398.56
2022-10-20T01:35:41.208Z,99403.69
2022-10-20T01:37:34.454Z,99388.97
2022-10-20T01:39:02.607Z,99399.50
2022-10-20T01:40:13.003Z,99386.47
2022-10-20T01:41:25.394Z,99391.00
2022-10-20T01:42:29.537Z,99384.91
2022-10-20T01:43:36.088Z,99390.16
2022-10-20T01:44:39.375Z,99387.41
2022-10-20T01:45:45.135Z,99382.06
2022-10-20T01:46:48.862Z,99372.50
2022-10-20T01:47:54.883Z,99379.63
2022-10-20T01:49:00.485Z,99381.38
2022-10-20T01:50:08.280Z,99376.25
2022-10-20T01:51:10.904Z,99373.66
2022-10-20T01:52:13.632Z,99373.53
2022-10-20T01:53:17.244Z,99371.63
2022-10-20T01:54:26.104Z,99365.84
2022-10-20T01:55:28.429Z,99369.41
2022-10-20T01:56:39.757Z,99365.78
2022-10-20T01:57:44.738Z,99358.03
2022-10-20T01:59:20.423Z,99373.50
2022-10-20T02:00:25.310Z,99370.84
2022-10-20T02:01:36.107Z,99364.31
2022-10-20T02:02:44.063Z,99359.13
2022-10-20T02:04:00.530Z,99361.63
2022-10-20T02:05:11.544Z,99363.50
2022-10-20T02:06:41.519Z,99362.28
2022-10-20T02:07:43.830Z,99363.16
2022-10-20T02:08:49.606Z,99365.72
2022-10-20T02:11:06.057Z,99360.31
2022-10-20T02:12:13.543Z,99362.88
2022-10-20T02:13:18.669Z,99357.47
2022-10-20T02:14:22.712Z,99349.38
2022-10-20T02:15:30.772Z,99354.06
2022-10-20T02:16:57.640Z,99357.41
2022-10-20T02:18:03.200Z,99357.47
2022-10-20T02:19:08.957Z,99360.03
2022-10-20T02:20:11.591Z,99366.22
2022-10-20T02:21:14.055Z,99363.47
2022-10-20T02:22:17.506Z,99370.44
2022-10-20T02:23:19.986Z,99362.66
2022-10-20T02:24:26.473Z,99369.66
2022-10-20T02:25:30.472Z,99371.34
2022-10-20T02:26:36.354Z,99366.34
2022-10-20T02:27:41.339Z,99376.75
2022-10-20T02:28:53.138Z,99368.06
2022-10-20T02:29:57.970Z,99368.84
2022-10-20T02:31:00.172Z,99372.41
2022-10-20T02:32:02.436Z,99369.66
2022-10-20T02:33:05.945Z,99375.88
2022-10-20T02:34:08.705Z,99380.16
2022-10-20T02:35:14.829Z,99379.38
2022-10-20T02:36:20.270Z,99378.38
2022-10-20T02:37:22.425Z,99377.59
2022-10-20T02:38:24.641Z,99378.50
2022-10-20T02:39:27.144Z,99366.09
2022-10-20T02:40:29.663Z,99375.69
2022-10-20T02:41:32.084Z,99369.78
2022-10-20T02:42:34.307Z,99368.00
2022-10-20T02:43:36.727Z,99371.41
2022-10-20T02:44:38.922Z,99374.91
2022-10-20T02:45:41.127Z,99370.63
2022-10-20T02:46:43.301Z,99373.41
2022-10-20T02:47:45.617Z,99376.03
2022-10-20T02:48:47.803Z,99371.91
2022-10-20T02:49:49.951Z,99359.59
2022-10-20T02:50:52.550Z,99371.03
2022-10-20T02:51:54.879Z,99366.63
2022-10-20T02:52:57.319Z,99369.25
2022-10-20T02:53:59.474Z,99371.91
2022-10-20T02:55:01.677Z,99365.06
2022-10-20T02:56:04.088Z,99375.41
2022-10-20T02:57:06.297Z,99374.72
2022-10-20T02:58:08.526Z,99369.34
2022-10-20T02:59:16.694Z,99369.41
2022-10-20T03:00:18.964Z,99366.69
2022-10-20T03:01:22.414Z,99366.81
2022-10-20T03:02:24.937Z,99363.50
2022-10-20T03:03:27.091Z,99367.69
2022-10-20T03:04:29.268Z,99372.16
2022-10-20T03:05:31.618Z,99365.00
2022-10-20T03:06:33.759Z,99370.31
2022-10-20T03:07:36.192Z,99372.94
2022-10-20T03:08:38.657Z,99371.75
2022-10-20T03:09:40.950Z,99367.63
2022-10-20T03:10:43.620Z,99382.47
2022-10-20T03:11:45.855Z,99375.34
2022-10-20T03:12:48.111Z,99368.53
2022-10-20T03:13:50.283Z,99375.53
2022-10-20T03:14:52.519Z,99372.72
2022-10-20T03:15:54.722Z,99375.41
2022-10-20T03:16:56.953Z,99377.22
2022-10-20T03:17:59.106Z,99376.41
2022-10-20T03:19:04.593Z,99378.22
2022-10-20T03:20:09.931Z,99373.94
2022-10-20T03:21:12.134Z,99376.56
2022-10-20T03:22:14.327Z,99380.25
2022-10-20T03:23:19.294Z,99372.44
2022-10-20T03:24:22.403Z,99386.63
2022-10-20T03:25:24.555Z,99380.44
2022-10-20T03:26:27.522Z,99380.44
2022-10-20T03:27:29.684Z,99365.44
2022-10-20T03:28:32.386Z,99365.44
2022-10-20T03:29:34.842Z,99365.44
2022-10-20T03:30:36.962Z,99357.78
2022-10-20T03:31:39.183Z,99362.03
2022-10-20T03:32:41.432Z,99363.81
2022-10-20T03:33:43.635Z,99355.97
2022-10-20T03:34:45.786Z,99355.66
2022-10-20T03:35:48.006Z,99357.50
2022-10-20T03:36:50.249Z,99349.69
2022-10-20T03:37:52.414Z,99349.56
2022-10-20T03:40:10.931Z,99346.00
2022-10-20T03:41:13.172Z,99345.03
2022-10-20T03:42:15.438Z,99349.41
2022-10-20T03:43:17.801Z,99348.63
2022-10-20T03:44:21.177Z,99346.84
2022-10-20T03:45:23.386Z,99342.41
2022-10-20T03:46:25.752Z,99344.94
2022-10-20T03:47:27.892Z,99330.84
2022-10-20T03:48:30.391Z,99334.22
2022-10-20T03:49:33.802Z,99338.56
2022-10-20T03:50:39.112Z,99337.72
2022-10-20T03:51:41.478Z,99322.72
2022-10-20T03:52:43.693Z,99330.34
2022-10-20T03:53:45.913Z,99329.22
2022-10-20T03:54:48.102Z,99331.25
2022-10-20T03:55:50.270Z,99333.81
2022-10-20T03:56:52.479Z,99331.13
2022-10-20T03:57:54.664Z,99332.84
2022-10-20T03:58:56.977Z,99341.63
2022-10-20T03:59:59.200Z,99341.56
2022-10-20T04:01:02.539Z,99345.00
2022-10-20T04:02:04.779Z,99350.25
2022-10-20T04:03:07.005Z,99337.94
2022-10-20T04:04:09.222Z,99341.63
2022-10-20T04:05:15.199Z,99335.66
2022-10-20T04:06:17.677Z,99342.63
2022-10-20T04:07:19.874Z,99342.56
2022-10-20T04:08:22.036Z,99340.81
2022-10-20T04:09:24.286Z,99343.50
2022-10-20T04:10:26.485Z,99337.09
2022-10-20T04:11:28.742Z,99339.88
2022-10-20T04:12:30.996Z,99325.03
2022-10-20T04:13:33.359Z,99332.41
2022-10-20T04:14:35.592Z,99336.97
2022-10-20T04:15:37.794Z,99323.00
2022-10-20T04:16:40.057Z,99334.41
2022-10-20T04:17:42.266Z,99326.53
2022-10-20T04:18:44.562Z,99326.63
2022-10-20T04:19:46.974Z,99315.13
2022-10-20T04:20:49.198Z,99315.25
2022-10-20T04:21:51.357Z,99322.34
2022-10-20T04:22:53.593Z,99317.88
2022-10-20T04:23:55.752Z,99324.56
2022-10-20T04:24:58.004Z,99316.88
2022-10-20T04:26:00.219Z,99319.56
2022-10-20T04:27:02.909Z,99313.50
2022-10-20T04:28:05.188Z,99323.06
2022-10-20T04:29:07.358Z,99319.44
2022-10-20T04:30:10.443Z,99325.41
2022-10-20T04:31:12.682Z,99311.50
2022-10-20T04:32:15.057Z,99309.88
2022-10-20T04:33:17.259Z,99305.50
2022-10-20T04:34:19.477Z,99305.44
2022-10-20T04:35:21.655Z,99306.31
2022-10-20T04:36:23.936Z,99303.75
2022-10-20T04:37:26.299Z,99290.53
2022-10-20T04:38:30.258Z,99304.31
2022-10-20T04:39:32.520Z,99300.97
2022-10-20T04:40:34.834Z,99297.38
2022-10-20T04:41:37.013Z,99299.28
2022-10-20T04:42:39.464Z,99288.84
2022-10-20T04:43:41.637Z,99294.22
2022-10-20T04:44:44.015Z,99289.66
2022-10-20T04:45:46.206Z,99299.47
2022-10-20T04:46:48.458Z,99296.06
2022-10-20T04:47:50.607Z,99293.94
2022-10-20T04:48:53.691Z,99295.84
2022-10-20T04:49:55.891Z,99313.50
2022-10-20T04:51:16.534Z,99299.41
2022-10-20T04:52:20.663Z,99301.41
2022-10-20T04:53:22.816Z,99289.03
2022-10-20T04:54:25.069Z,99278.72
2022-10-20T04:55:27.280Z,99290.22
2022-10-20T04:56:29.475Z,99286.75
2022-10-20T04:57:31.635Z,99295.41
2022-10-20T04:58:34.789Z,99290.16
2022-10-20T04:59:36.937Z,99290.16
2022-10-20T05:00:40.140Z,99283.19
2022-10-20T05:01:45.119Z,99272.00
2022-10-20T05:02:48.099Z,99261.25
2022-10-20T05:03:50.674Z,99272.56
2022-10-20T05:04:52.829Z,99257.50
2022-10-20T05:05:54.965Z,99271.56
2022-10-20T05:06:57.146Z,99274.13
2022-10-20T05:07:59.328Z,99279.50
2022-10-20T05:09:04.273Z,99282.34
2022-10-20T05:10:06.898Z,99270.94
2022-10-20T05:11:09.770Z,99275.88
2022-10-20T05:12:11.957Z,99277.81
2022-10-20T05:13:14.251Z,99269.00
2022-10-20T05:14:16.561Z,99269.78
2022-10-20T05:15:18.803Z,99265.31
2022-10-20T05:16:21.703Z,99268.72
2022-10-20T05:17:23.933Z,99259.13
2022-10-20T05:18:26.158Z,99266.06
2022-10-20T05:19:28.402Z,99256.50
2022-10-20T05:20:36.841Z,99253.81
2022-10-20T05:21:48.178Z,99256.28
2022-10-20T05:22:50.372Z,99254.59
2022-10-20T05:24:16.794Z,99253.44
2022-10-20T05:25:36.049Z,99254.09
2022-10-20T05:26:39.341Z,99249.91
2022-10-20T05:27:41.661Z,99244.72
2022-10-20T05:28:46.347Z,99237.75
2022-10-20T05:29:48.508Z,99244.78
2022-10-20T05:30:50.732Z,99241.28
2022-10-20T05:31:52.893Z,99237.66
2022-10-20T05:32:55.178Z,99241.97
2022-10-20T05:33:57.791Z,99237.47
2022-10-20T05:34:59.979Z,99236.78
2022-10-20T05:36:16.955Z,99226.09
2022-10-20T05:37:24.232Z,99230.44
2022-10-20T05:38:28.710Z,99229.38
2022-10-20T05:39:30.854Z,99212.59
2022-10-20T05:40:33.013Z,99225.69
2022-10-20T05:41:38.066Z,99212.53
2022-10-20T05:42:41.335Z,99221.13
2022-10-20T05:43:51.323Z,99207.22
2022-10-20T05:44:53.537Z,99213.22
2022-10-20T05:45:55.771Z,99198.25
2022-10-20T05:46:57.991Z,99206.06
2022-10-20T05:48:00.195Z,99205.13
2022-10-20T05:49:03.274Z,99212.03
2022-10-20T05:50:05.878Z,99206.75
2022-10-20T05:51:15.979Z,99212.66
2022-10-20T05:52:18.194Z,99205.63
2022-10-20T05:53:20.402Z,99215.28
2022-10-20T05:54:22.675Z,99221.34
2022-10-20T05:55:25.041Z,99231.53
2022-10-20T05:56:28.996Z,99231.53
2022-10-20T05:57:31.242Z,99221.75
2022-10-20T05:58:33.749Z,99230.78
2022-10-20T05:59:35.894Z,99222.88
2022-10-20T06:00:42.282Z,99233.63
2022-10-20T06:01:49.349Z,99231.84
2022-10-20T06:02:54.146Z,99231.78
2022-10-20T06:03:58.543Z,99224.72
2022-10-20T06:05:00.814Z,99235.25
2022-10-20T06:06:04.515Z,99223.78
2022-10-20T06:07:06.779Z,99232.69
2022-10-20T06:08:08.996Z,99235.97
2022-10-20T06:09:12.104Z,99237.03
2022-10-20T06:10:14.332Z,99237.47
2022-10-20T06:11:17.725Z,99241.00
2022-10-20T06:12:20.012Z,99236.72
2022-10-20T06:13:22.218Z,99239.50
2022-10-20T06:14:25.866Z,99240.38
2022-10-20T06:15:28.069Z,99250.75
2022-10-20T06:16:32.211Z,99246.19
2022-10-20T06:17:34.482Z,99250.44
2022-10-20T06:18:40.088Z,99256.50
2022-10-20T06:19:42.425Z,99257.06
2022-10-20T06:20:44.588Z,99253.53
2022-10-20T06:21:48.890Z,99255.44
2022-10-20T06:22:51.799Z,99262.31
2022-10-20T06:23:54.063Z,99264.31
2022-10-20T06:24:56.198Z,99270.50
2022-10-20T06:26:11.945Z,99267.72
2022-10-20T06:27:14.147Z,99269.50
2022-10-20T06:28:16.631Z,99264.31
2022-10-20T06:29:18.997Z,99265.31
2022-10-20T06:30:21.265Z,99272.75
2022-10-20T06:31:28.269Z,99273.56
2022-10-20T06:32:30.397Z,99267.59
2022-10-20T06:33:32.639Z,99269.78
2022-10-20T06:34:34.817Z,99269.88
2022-10-20T06:35:36.953Z,99264.25
2022-10-20T06:36:40.102Z,99263.94
2022-10-20T06:37:42.305Z,99270.22
2022-10-20T06:38:44.894Z,99270.28
2022-10-20T06:39:47.112Z,99267.66
2022-10-20T06:40:49.268Z,99263.78
2022-10-20T06:41:53.425Z,99271.84
2022-10-20T06:44:03.274Z,99280.69
2022-10-20T06:45:06.007Z,99285.75
2022-10-20T06:46:12.245Z,99277.69
2022-10-20T06:47:14.405Z,99299.72
2022-10-20T06:48:16.563Z,99299.91
2022-10-20T06:49:19.178Z,99300.94
2022-10-20T06:50:21.400Z,99294.78
2022-10-20T06:51:23.537Z,99292.16
2022-10-20T06:52:25.741Z,99293.81
2022-10-20T06:53:29.557Z,99286.75
2022-10-20T06:54:31.750Z,99278.78
2022-10-20T06:55:33.926Z,99285.28
2022-10-20T06:56:37.249Z,99282.09
2022-10-20T06:57:39.799Z,99279.31
2022-10-20T06:58:44.687Z,99289.94
2022-10-20T06:59:47.918Z,99292.41
2022-10-20T07:01:04.420Z,99298.84
2022-10-20T07:02:12.424Z,99309.63
2022-10-20T07:03:14.599Z,99315.97
2022-10-20T07:04:16.919Z,99308.47
2022-10-20T07:05:19.891Z,99312.25
2022-10-20T07:06:30.617Z,99306.34
2022-10-20T07:07:33.093Z,99310.34
2022-10-20T07:08:36.422Z,99314.81
2022-10-20T07:09:38.672Z,99313.31
2022-10-20T07:10:40.875Z,99310.22
2022-10-20T07:11:43.537Z,99318.41
2022-10-20T07:12:45.854Z,99313.63
2022-10-20T07:13:49.201Z,99311.78
2022-10-20T07:14:51.422Z,99314.13
2022-10-20T07:15:55.295Z,99317.34
2022-10-20T07:16:57.479Z,99320.03
2022-10-20T07:17:59.624Z,99317.22
2022-10-20T07:19:03.206Z,99316.69
2022-10-20T07:20:06.060Z,99308.38
2022-10-20T07:21:20.457Z,99317.00
2022-10-20T07:22:22.629Z,99317.00
2022-10-20T07:23:26.091Z,99320.94
2022-10-20T07:24:29.399Z,99321.78
2022-10-20T07:25:31.560Z,99328.63
2022-10-20T07:26:36.501Z,99328.03
2022-10-20T07:27:38.687Z,99328.47
2022-10-20T07:28:46.179Z,99323.94
2022-10-20T07:29:48.375Z,99325.28
2022-10-20T07:30:50.531Z,99329.53
2022-10-20T07:31:52.744Z,99322.09
2022-10-20T07:32:54.940Z,99343.72
2022-10-20T07:34:12.909Z,99334.34
2022-10-20T07:35:16.208Z,99339.56
2022-10-20T07:36:24.089Z,99322.00
2022-10-20T07:37:26.427Z,99324.38
2022-10-20T07:38:28.647Z,99321.44
2022-10-20T07:39:30.856Z,99322.97
2022-10-20T07:40:33.063Z,99326.66
2022-10-20T07:41:37.539Z,99327.81
2022-10-20T07:42:39.856Z,99332.03
2022-10-20T07:43:42.837Z,99331.63
2022-10-20T07:44:44.998Z,99329.41
2022-10-20T07:45:47.189Z,99335.09
2022-10-20T07:46:50.031Z,99321.56
2022-10-20T07:47:52.308Z,99314.13
2022-10-20T07:48:54.577Z,99324.09
2022-10-20T07:49:56.725Z,99323.41
2022-10-20T07:51:27.045Z,99319.41
2022-10-20T07:52:31.352Z,99326.41
2022-10-20T07:53:34.080Z,99338.22
2022-10-20T07:54:36.367Z,99321.97
2022-10-20T07:55:39.357Z,99325.03
2022-10-20T07:56:43.052Z,99322.56
2022-10-20T07:57:47.922Z,99312.25
2022-10-20T07:58:50.150Z,99321.19
2022-10-20T07:59:52.405Z,99328.44
2022-10-20T08:00:54.632Z,99329.88
2022-10-20T08:01:59.553Z,99326.38
2022-10-20T08:03:02.259Z,99340.44
2022-10-20T08:04:04.475Z,99327.78
2022-10-20T08:05:07.904Z,99335.03
2022-10-20T08:06:10.117Z,99325.13
2022-10-20T08:07:12.519Z,99326.31
2022-10-20T08:08:14.731Z,99321.97
2022-10-20T08:09:16.919Z,99329.09
2022-10-20T08:10:19.464Z,99333.97
2022-10-20T08:11:22.317Z,99325.38
2022-10-20T08:12:24.533Z,99338.75
2022-10-20T08:13:28.024Z,99332.59
2022-10-20T08:14:33.567Z,99319.22
2022-10-20T08:15:44.163Z,99325.56
2022-10-20T08:16:47.563Z,99323.72
2022-10-20T08:17:50.180Z,99316.44
2022-10-20T08:20:01.453Z,99315.56
2022-10-20T08:21:18.196Z,99318.91
2022-10-20T08:22:20.355Z,99324.94
2022-10-20T08:23:22.543Z,99324.63
2022-10-20T08:24:24.753Z,99314.78
2022-10-20T08:25:26.904Z,99326.31
2022-10-20T08:26:29.215Z,99330.00
2022-10-20T08:27:31.412Z,99333.69
2022-10-20T08:28:33.988Z,99338.06
2022-10-20T08:29:36.635Z,99338.53
2022-10-20T08:30:39.320Z,99342.06
2022-10-20T08:31:43.803Z,99337.91
2022-10-20T08:32:46.029Z,99338.88
2022-10-20T08:33:52.394Z,99331.38
2022-10-20T08:34:54.963Z,99316.81
2022-10-20T08:36:04.711Z,99320.16
2022-10-20T08:37:06.892Z,99322.66
2022-10-20T08:38:09.150Z,99329.03
2022-10-20T08:39:11.383Z,99332.25
2022-10-20T08:40:29.460Z,99333.28
2022-10-20T08:43:04.205Z,99342.50
2022-10-20T08:44:07.236Z,99338.81
2022-10-20T08:45:15.411Z,99356.56
2022-10-20T08:46:20.596Z,99364.41
2022-10-20T08:47:32.608Z,99356.72
2022-10-20T08:48:36.032Z,99358.22
2022-10-20T08:49:38.287Z,99361.78
2022-10-20T08:50:45.251Z,99347.69
2022-10-20T08:51:47.581Z,99350.97
2022-10-20T08:52:54.093Z,99361.78
2022-10-20T08:53:59.649Z,99347.84
2022-10-20T08:55:04.186Z,99345.81
2022-10-20T08:56:06.667Z,99351.09
2022-10-20T08:57:36.424Z,99351.56
2022-10-20T08:58:43.227Z,99351.38
2022-10-20T08:59:45.430Z,99347.31
2022-10-20T09:00:50.706Z,99354.88
2022-10-20T09:01:54.404Z,99351.03
2022-10-20T09:03:01.621Z,99354.03
2022-10-20T09:04:14.114Z,99363.47
2022-10-20T09:05:19.203Z,99370.97
2022-10-20T09:06:21.652Z,99379.88
2022-10-20T09:07:41.792Z,99384.50
2022-10-20T09:08:44.544Z,99390.19
2022-10-20T09:09:47.340Z,99390.28
2022-10-20T09:10:52.203Z,99390.28
2022-10-20T09:12:00.772Z,99393.69
2022-10-20T09:13:14.657Z,99403.66
2022-10-20T09:14:16.897Z,99406.66
2022-10-20T09:15:21.089Z,99404.44
2022-10-20T09:16:41.726Z,99407.94
2022-10-20T09:17:50.747Z,99388.38
2022-10-20T09:18:58.118Z,99390.97
2022-10-20T09:20:01.357Z,99395.06
2022-10-20T09:21:08.293Z,99386.59
2022-10-20T09:22:13.447Z,99395.28
2022-10-20T09:23:39.316Z,99397.66
2022-10-20T09:24:43.427Z,99403.81
2022-10-20T09:25:47.513Z,99404.28
2022-10-20T09:26:58.619Z,99402.91
2022-10-20T09:28:01.881Z,99404.72
2022-10-20T09:29:14.395Z,99401.44
2022-10-20T09:30:33.202Z,99405.28
2022-10-20T09:31:38.570Z,99409.63
2022-10-20T09:32:46.984Z,99413.75
2022-10-20T09:33:49.583Z,99399.97
2022-10-20T09:35:10.980Z,99398.72
2022-10-20T09:36:20.600Z,99399.53
2022-10-20T09:37:22.803Z,99401.56
2022-10-20T09:38:29.755Z,99389.34
2022-10-20T09:39:54.946Z,99385.72
2022-10-20T09:41:18.554Z,99387.63
2022-10-20T09:42:25.094Z,99396.25
2022-10-20T09:43:27.863Z,99392.16
2022-10-20T09:44:37.977Z,99392.31
2022-10-20T09:46:00.130Z,99396.22
2022-10-20T09:47:02.987Z,99401.25
2022-10-20T09:48:24.302Z,99397.66
2022-10-20T09:49:34.018Z,99395.84
2022-10-20T09:50:40.403Z,99395.84
2022-10-20T09:51:47.641Z,99392.47
2022-10-20T09:52:49.920Z,99392.38
2022-10-20T09:54:00.857Z,99385.41
2022-10-20T09:55:37.581Z,99374.88
2022-10-20T09:56:42.470Z,99383.00
2022-10-20T09:57:48.859Z,99374.50
2022-10-20T09:58:51.175Z,99377.22
2022-10-20T09:59:55.239Z,99382.38
2022-10-20T10:01:07.015Z,99376.59
2022-10-20T10:02:15.233Z,99367.97
2022-10-20T10:03:23.300Z,99372.88
2022-10-20T10:04:37.433Z,99371.72
2022-10-20T10:05:40.115Z,99377.66
2022-10-20T10:06:43.796Z,99372.81
2022-10-20T10:07:58.031Z,99376.34
2022-10-20T10:09:02.338Z,99377.00
2022-10-20T10:10:19.586Z,99378.84
2022-10-20T10:11:34.749Z,99378.72
2022-10-20T10:12:37.300Z,99373.09
2022-10-20T10:13:43.708Z,99380.31
2022-10-20T10:14:51.033Z,99378.59
2022-10-20T10:16:01.822Z,99379.91
2022-10-20T10:17:04.307Z,99380.03
2022-10-20T10:18:15.726Z,99388.91
2022-10-20T10:19:20.539Z,99395.16
2022-10-20T10:20:22.695Z,99389.38
2022-10-20T10:21:25.374Z,99393.78
2022-10-20T10:22:28.131Z,99387.06
2022-10-20T10:24:00.772Z,99380.53
2022-10-20T10:25:03.688Z,99373.53
2022-10-20T10:26:39.571Z,99370.91
2022-10-20T10:27:58.042Z,99377.84
2022-10-20T10:29:00.317Z,99380.88
2022-10-20T10:30:24.034Z,99363.56
2022-10-20T10:31:26.771Z,99367.81
2022-10-20T10:32:30.053Z,99366.41
2022-10-20T10:33:35.402Z,99361.06
2022-10-20T10:35:01.089Z,99361.50
2022-10-20T10:36:13.106Z,99358.13
2022-10-20T10:37:17.076Z,99356.25
2022-10-20T10:38:19.968Z,99356.44
2022-10-20T10:39:22.350Z,99362.16
2022-10-20T10:40:41.675Z,99355.56
2022-10-20T10:42:00.444Z,99362.75
2022-10-20T10:43:29.384Z,99356.72
2022-10-20T10:44:48.272Z,99349.34
2022-10-20T10:46:16.732Z,99336.66
2022-10-20T10:47:58.907Z,99343.84
2022-10-20T10:49:16.486Z,99344.28
2022-10-20T10:50:39.420Z,99342.88
2022-10-20T10:51:50.360Z,99353.16
2022-10-20T10:53:07.475Z,99342.63
2022-10-20T10:54:34.006Z,99352.00
2022-10-20T10:56:03.219Z,99354.00
2022-10-20T10:57:29.314Z,99353.47
2022-10-20T10:58:51.168Z,99350.31
2022-10-20T10:59:53.556Z,99350.03
2022-10-20T11:01:06.914Z,99337.28
2022-10-20T11:02:26.694Z,99344.63
2022-10-20T11:04:13.047Z,99352.38
2022-10-20T11:05:25.383Z,99351.88
2022-10-20T11:06:58.033Z,99350.06
2022-10-20T11:08:14.953Z,99339.31
2022-10-20T11:09:27.754Z,99332.75
2022-10-20T11:10:54.615Z,99331.16
2022-10-20T11:12:41.655Z,99350.88
2022-10-20T11:14:02.999Z,99339.00
2022-10-20T11:15:28.883Z,99336.03
2022-10-20T11:16:51.875Z,99325.31
2022-10-20T11:18:02.422Z,99326.59
2022-10-20T11:19:17.232Z,99326.44
2022-10-20T11:20:34.202Z,99318.69
2022-10-20T11:21:54.217Z,99317.63
2022-10-20T11:23:26.332Z,99317.00
2022-10-20T11:24:34.167Z,99322.31
2022-10-20T11:26:01.837Z,99308.31
2022-10-20T11:27:25.806Z,99304.59
2022-10-20T11:28:36.390Z,99300.88
2022-10-20T11:29:49.782Z,99309.34
2022-10-20T11:30:52.058Z,99319.56
2022-10-20T11:31:57.053Z,99313.53
2022-10-20T11:33:23.151Z,99308.06
2022-10-20T11:34:36.384Z,99300.53
2022-10-20T11:35:58.113Z,99294.34
2022-10-20T11:37:17.879Z,99304.72
2022-10-20T11:38:43.621Z,99319.72
2022-10-20T11:39:52.260Z,99310.16
2022-10-20T11:41:19.449Z,99313.13
2022-10-20T11:42:50.058Z,99312.38
2022-10-20T11:44:02.483Z,99298.16
2022-10-20T11:45:13.012Z,99304.97
2022-10-20T11:46:23.155Z,99295.63
2022-10-20T11:47:41.589Z,99290.19
2022-10-20T11:48:52.721Z,99280.53
2022-10-20T11:49:54.930Z,99286.16
2022-10-20T11:51:15.094Z,99297.53
2022-10-20T11:52:41.650Z,99299.78
2022-10-20T11:54:05.885Z,99310.91
2022-10-20T11:55:29.117Z,99304.81
2022-10-20T11:56:49.576Z,99308.38
2022-10-20T11:58:03.574Z,99301.59
2022-10-20T11:59:22.130Z,99320.19
2022-10-20T12:00:52.476Z,99317.31
2022-10-20T12:02:38.324Z,99317.00
2022-10-20T12:04:25.411Z,99320.88
2022-10-20T12:06:07.584Z,99301.44
2022-10-20T12:07:32.964Z,99304.28
2022-10-20T12:08:47.169Z,99289.44
2022-10-20T12:10:02.598Z,99293.91
2022-10-20T12:11:21.259Z,99298.25
2022-10-20T12:12:26.636Z,99303.44
2022-10-20T12:13:51.553Z,99295.66
2022-10-20T12:14:59.424Z,99303.63
2022-10-20T12:16:02.015Z,99306.50
2022-10-20T12:17:21.302Z,99304.47
2022-10-20T12:18:35.445Z,99301.38
2022-10-20T12:19:38.430Z,99309.03
2022-10-20T12:20:49.238Z,99314.13
2022-10-20T12:22:14.358Z,99308.47
2022-10-20T12:23:44.659Z,99301.97
2022-10-20T12:24:52.571Z,99307.16
2022-10-20T12:25:54.819Z,99315.13
2022-10-20T12:27:08.766Z,99314.41
2022-10-20T12:28:20.018Z,99303.69
2022-10-20T12:29:31.461Z,99304.72
2022-10-20T12:30:39.580Z,99308.56
2022-10-20T12:32:25.595Z,99312.78
2022-10-20T12:33:53.223Z,99300.16
2022-10-20T12:34:57.673Z,99298.91
2022-10-20T12:36:18.224Z,99296.69
2022-10-20T12:37:30.614Z,99297.00
2022-10-20T12:38:32.780Z,99295.84
2022-10-20T12:39:35.919Z,99302.09
2022-10-20T12:40:47.457Z,99300.75
2022-10-20T12:41:59.596Z,99296.22
2022-10-20T12:43:01.853Z,99297.09
2022-10-20T12:44:17.867Z,99291.59
2022-10-20T12:45:19.945Z,99297.97
2022-10-20T12:46:27.503Z,99292.56
2022-10-20T12:47:32.113Z,99287.69
2022-10-20T12:48:40.583Z,99290.97
2022-10-20T12:49:53.277Z,99285.13
2022-10-20T12:51:03.930Z,99287.56
2022-10-20T12:52:20.189Z,99285.13
2022-10-20T12:53:29.088Z,99278.44
2022-10-20T12:54:39.518Z,99279.41
2022-10-20T12:55:42.876Z,99284.63
2022-10-20T12:56:45.150Z,99285.31
2022-10-20T12:57:47.460Z,99277.59
2022-10-20T12:59:21.862Z,99275.25
2022-10-20T13:00:24.002Z,99266.84
2022-10-20T13:01:28.276Z,99265.69
2022-10-20T13:02:32.935Z,99258.38
2022-10-20T13:03:44.419Z,99264.88
2022-10-20T13:05:23.508Z,99268.03
2022-10-20T13:06:30.738Z,99273.97
2022-10-20T13:07:48.113Z,99259.75
2022-10-20T13:09:10.174Z,99255.94
2022-10-20T13:10:31.807Z,99246.16
2022-10-20T13:11:40.703Z,99250.19
2022-10-20T13:12:42.920Z,99247.25
2022-10-20T13:13:58.727Z,99242.22
2022-10-20T13:15:12.915Z,99235.88
2022-10-20T13:16:20.872Z,99233.00
2022-10-20T13:17:29.586Z,99238.19
2022-10-20T13:18:39.284Z,99230.25
2022-10-20T13:20:01.431Z,99230.56